createdAt,value
2023-01-25T00:00:00.642Z,37.00
2023-01-25T00:02:28.998Z,35.25
2023-01-25T00:04:55.755Z,37.50
2023-01-25T00:07:22.543Z,38.50
2023-01-25T00:09:49.274Z,38.25
2023-01-25T00:12:16.096Z,35.00
2023-01-25T00:14:42.900Z,39.00
2023-01-25T00:17:09.629Z,38.25
2023-01-25T00:19:37.717Z,38.75
2023-01-25T00:22:04.467Z,36.00
2023-01-25T00:24:31.751Z,47.00
2023-01-25T00:26:58.543Z,36.50
2023-01-25T00:29:25.329Z,42.00
2023-01-25T00:32:02.379Z,42.00
2023-01-25T00:34:47.673Z,38.75
2023-01-25T00:37:20.636Z,42.00
2023-01-25T00:39:47.438Z,40.00
2023-01-25T00:42:15.270Z,40.00
2023-01-25T00:44:42.350Z,36.75
2023-01-25T00:47:09.592Z,43.00
2023-01-25T00:49:36.327Z,41.75
2023-01-25T00:52:04.799Z,38.25
2023-01-25T00:54:31.569Z,41.50
2023-01-25T00:56:58.389Z,39.50
2023-01-25T00:59:25.604Z,33.50
2023-01-25T01:01:53.514Z,37.75
2023-01-25T01:04:21.001Z,37.25
2023-01-25T01:06:47.732Z,42.00
2023-01-25T01:09:17.477Z,39.00
2023-01-25T01:11:44.485Z,37.50
2023-01-25T01:14:11.397Z,35.00
2023-01-25T01:16:38.192Z,34.00
2023-01-25T01:19:05.504Z,40.00
2023-01-25T01:21:32.847Z,29.75
2023-01-25T01:23:59.664Z,35.75
2023-01-25T01:26:27.942Z,35.75
2023-01-25T01:28:54.678Z,35.25
2023-01-25T01:31:24.026Z,30.50
2023-01-25T01:33:52.648Z,36.25
2023-01-25T01:36:21.646Z,36.25
2023-01-25T01:38:48.864Z,37.75
2023-01-25T01:41:16.448Z,24.25
2023-01-25T01:43:44.954Z,32.50
2023-01-25T01:46:15.657Z,33.75
2023-01-25T01:48:47.293Z,33.50
2023-01-25T01:51:19.894Z,30.25
2023-01-25T01:53:50.870Z,29.25
2023-01-25T01:56:22.059Z,31.50
2023-01-25T01:58:52.996Z,32.75
2023-01-25T02:01:19.831Z,36.75
2023-01-25T02:03:48.348Z,40.00
2023-01-25T02:06:20.423Z,39.75
2023-01-25T02:08:47.590Z,42.50
2023-01-25T02:11:14.411Z,34.25
2023-01-25T02:13:41.509Z,40.75
2023-01-25T02:16:15.695Z,40.25
2023-01-25T02:18:42.484Z,34.50
2023-01-25T02:21:10.212Z,36.50
2023-01-25T02:23:45.011Z,28.25
2023-01-25T02:26:14.550Z,35.25
2023-01-25T02:28:46.878Z,32.25
2023-01-25T02:31:13.694Z,38.75
2023-01-25T02:33:40.463Z,40.50
2023-01-25T02:36:20.174Z,36.75
2023-01-25T02:38:51.620Z,39.75
2023-01-25T02:41:24.640Z,41.00
2023-01-25T02:43:51.671Z,39.00
2023-01-25T02:46:22.739Z,39.00
2023-01-25T02:48:49.631Z,42.75
2023-01-25T02:51:16.391Z,33.00
2023-01-25T02:53:43.170Z,36.75
2023-01-25T02:56:09.919Z,36.75
2023-01-25T02:58:38.006Z,32.25
2023-01-25T03:01:04.726Z,30.50
2023-01-25T03:03:31.474Z,29.00
2023-01-25T03:05:58.228Z,35.25
2023-01-25T03:08:24.968Z,31.50
2023-01-25T03:10:51.796Z,36.00
2023-01-25T03:13:18.628Z,38.25
2023-01-25T03:15:46.734Z,26.75
2023-01-25T03:18:13.488Z,28.25
2023-01-25T03:20:40.229Z,29.00
2023-01-25T03:23:06.923Z,27.50
2023-01-25T03:25:33.680Z,24.00
2023-01-25T03:28:00.376Z,24.75
2023-01-25T03:30:27.139Z,29.00
2023-01-25T03:32:55.222Z,30.00
2023-01-25T03:35:21.960Z,31.50
2023-01-25T03:37:48.623Z,30.50
2023-01-25T03:40:15.655Z,25.50
2023-01-25T03:42:42.408Z,28.00
2023-01-25T03:45:10.011Z,36.75
2023-01-25T03:47:36.902Z,38.00
2023-01-25T03:50:05.971Z,27.25
2023-01-25T03:52:32.676Z,31.25
2023-01-25T03:54:59.437Z,40.00
2023-01-25T03:57:26.163Z,35.00
2023-01-25T03:59:52.865Z,25.00
2023-01-25T04:02:19.684Z,29.75
2023-01-25T04:04:46.420Z,37.75
2023-01-25T04:07:14.511Z,29.25
2023-01-25T04:09:41.317Z,28.50
2023-01-25T04:12:08.072Z,19.00
2023-01-25T04:14:43.980Z,27.50
2023-01-25T04:17:11.209Z,29.75
2023-01-25T04:19:37.931Z,29.25
2023-01-25T04:22:04.686Z,27.00
2023-01-25T04:24:32.895Z,26.50
2023-01-25T04:26:59.662Z,25.75
2023-01-25T04:29:40.090Z,30.75
2023-01-25T04:32:08.068Z,32.00
2023-01-25T04:34:34.870Z,22.75
2023-01-25T04:37:01.576Z,26.00
2023-01-25T04:39:28.496Z,27.50
2023-01-25T04:41:56.679Z,22.75
2023-01-25T04:44:23.492Z,25.00
2023-01-25T04:46:50.239Z,29.25
2023-01-25T04:49:17.013Z,30.00
2023-01-25T04:51:43.750Z,22.00
2023-01-25T04:54:10.469Z,21.50
2023-01-25T04:56:37.157Z,24.00
2023-01-25T04:59:05.273Z,21.00
2023-01-25T05:01:32.033Z,21.75
2023-01-25T05:03:58.965Z,28.50
2023-01-25T05:06:25.998Z,27.75
2023-01-25T05:08:52.814Z,27.25
2023-01-25T05:11:19.566Z,23.75
2023-01-25T05:13:46.266Z,27.25
2023-01-25T05:16:14.469Z,25.00
2023-01-25T05:18:48.333Z,24.50
2023-01-25T05:21:15.820Z,20.75
2023-01-25T05:23:42.522Z,24.50
2023-01-25T05:26:09.291Z,23.00
2023-01-25T05:28:36.043Z,24.50
2023-01-25T05:31:04.210Z,29.50
2023-01-25T05:33:32.363Z,31.25
2023-01-25T05:35:59.355Z,20.00
2023-01-25T05:38:26.077Z,25.00
2023-01-25T05:40:52.792Z,21.25
2023-01-25T05:43:19.637Z,23.00
2023-01-25T05:45:52.729Z,24.50
2023-01-25T05:48:19.531Z,21.75
2023-01-25T05:50:47.629Z,31.00
2023-01-25T05:53:14.368Z,20.75
2023-01-25T05:55:41.222Z,27.00
2023-01-25T05:58:07.950Z,28.50
2023-01-25T06:00:34.718Z,31.50
2023-01-25T06:03:02.064Z,27.50
2023-01-25T06:05:28.914Z,27.50
2023-01-25T06:07:58.286Z,28.50
2023-01-25T06:10:25.214Z,20.00
2023-01-25T06:12:56.908Z,27.75
2023-01-25T06:15:23.635Z,37.25
2023-01-25T06:17:54.057Z,30.25
2023-01-25T06:20:20.855Z,29.50
2023-01-25T06:22:49.855Z,33.00
2023-01-25T06:25:18.174Z,29.50
2023-01-25T06:27:44.959Z,25.50
2023-01-25T06:30:12.134Z,28.25
2023-01-25T06:32:39.409Z,29.00
2023-01-25T06:35:06.818Z,35.25
2023-01-25T06:37:33.794Z,24.50
2023-01-25T06:40:00.686Z,31.50
2023-01-25T06:42:28.807Z,31.75
2023-01-25T06:44:55.508Z,29.00
2023-01-25T06:47:22.242Z,31.25
2023-01-25T06:49:49.048Z,34.50
2023-01-25T06:52:15.852Z,32.00
2023-01-25T06:54:42.787Z,24.50
2023-01-25T06:57:09.538Z,19.50
2023-01-25T06:59:37.745Z,34.00
2023-01-25T07:02:04.645Z,36.00
2023-01-25T07:04:31.348Z,33.25
2023-01-25T07:06:58.070Z,35.75
2023-01-25T07:09:24.860Z,32.00
2023-01-25T07:11:51.667Z,36.25
2023-01-25T07:14:18.542Z,30.25
2023-01-25T07:16:46.667Z,31.00
2023-01-25T07:19:13.511Z,34.00
2023-01-25T07:21:40.197Z,33.00
2023-01-25T07:24:07.310Z,31.25
2023-01-25T07:26:34.092Z,28.00
2023-01-25T07:29:00.915Z,33.75
2023-01-25T07:31:27.843Z,34.25
2023-01-25T07:33:57.399Z,37.00
2023-01-25T07:36:25.446Z,48.33
2023-01-25T07:38:53.513Z,30.25
2023-01-25T07:41:20.282Z,35.25
2023-01-25T07:43:46.945Z,38.00
2023-01-25T07:46:14.290Z,38.25
2023-01-25T07:48:45.208Z,39.50
2023-01-25T07:51:13.537Z,40.00
2023-01-25T07:53:41.462Z,30.50
2023-01-25T07:56:09.534Z,42.00
2023-01-25T07:58:36.659Z,31.75
2023-01-25T08:01:07.225Z,29.75
2023-01-25T08:03:34.061Z,33.75
2023-01-25T08:06:00.895Z,24.50
2023-01-25T08:08:28.999Z,23.00
2023-01-25T08:10:55.737Z,31.25
2023-01-25T08:13:22.536Z,35.25
2023-01-25T08:15:53.849Z,22.00
2023-01-25T08:18:20.562Z,36.75
2023-01-25T08:20:47.578Z,26.25
2023-01-25T08:23:14.399Z,31.25
2023-01-25T08:25:42.714Z,29.75
2023-01-25T08:28:09.417Z,34.75
2023-01-25T08:30:36.649Z,33.00
2023-01-25T08:33:04.631Z,26.75
2023-01-25T08:35:31.367Z,27.25
2023-01-25T08:37:58.093Z,31.00
2023-01-25T08:40:24.788Z,27.00
2023-01-25T08:42:53.017Z,29.25
2023-01-25T08:45:19.771Z,32.00
2023-01-25T08:47:46.464Z,33.00
2023-01-25T08:50:13.190Z,31.00
2023-01-25T08:52:39.912Z,35.00
2023-01-25T08:55:07.179Z,30.00
2023-01-25T08:57:33.862Z,43.00
2023-01-25T09:00:02.474Z,42.50
2023-01-25T09:02:29.353Z,25.50
2023-01-25T09:04:56.088Z,35.00
2023-01-25T09:07:23.200Z,37.00
2023-01-25T09:09:49.917Z,46.25
2023-01-25T09:12:16.597Z,59.50
2023-01-25T09:14:43.314Z,67.33
2023-01-25T09:17:11.411Z,46.00
2023-01-25T09:19:38.119Z,46.50
2023-01-25T09:22:04.882Z,54.50
2023-01-25T09:24:31.647Z,79.00
2023-01-25T09:27:00.121Z,75.67
2023-01-25T09:29:27.313Z,39.00
2023-01-25T09:31:54.149Z,50.25
2023-01-25T09:34:22.310Z,35.50
2023-01-25T09:36:49.056Z,44.25
2023-01-25T09:39:15.740Z,39.00
2023-01-25T09:42:14.986Z,16.50
2023-01-25T09:45:12.427Z,24.33
2023-01-25T09:47:48.455Z,16.50
2023-01-25T09:50:32.028Z,16.00
2023-01-25T09:53:22.534Z,40.75
2023-01-25T09:55:55.681Z,18.25
2023-01-25T09:58:30.695Z,32.75
2023-01-25T10:01:14.031Z,14.75
2023-01-25T10:03:48.801Z,29.50
2023-01-25T10:06:17.884Z,30.50
2023-01-25T10:08:51.904Z,14.25
2023-01-25T10:11:24.680Z,251.00
2023-01-25T10:13:52.847Z,30.00
2023-01-25T10:16:26.116Z,24.50
2023-01-25T10:19:01.504Z,26.25
2023-01-25T10:21:34.576Z,28.00
2023-01-25T10:24:20.317Z,126.00
2023-01-25T10:26:52.477Z,23.25
2023-01-25T10:29:20.743Z,16.25
2023-01-25T10:31:49.317Z,25.75
2023-01-25T10:34:20.575Z,27.25
2023-01-25T10:36:53.645Z,20.00
2023-01-25T10:39:20.810Z,13.50
2023-01-25T10:41:53.563Z,33.75
2023-01-25T10:44:20.338Z,28.50
2023-01-25T10:46:52.188Z,47.25
2023-01-25T10:49:24.162Z,90.25
2023-01-25T10:51:52.367Z,73.25
2023-01-25T10:54:19.058Z,61.75
2023-01-25T10:56:46.359Z,72.00
2023-01-25T10:59:20.196Z,79.50
2023-01-25T11:01:47.001Z,101.00
2023-01-25T11:04:37.759Z,96.00
2023-01-25T11:07:06.429Z,75.67
2023-01-25T11:09:36.762Z,59.25
2023-01-25T11:12:06.106Z,58.50
2023-01-25T11:14:33.736Z,63.00
2023-01-25T11:17:03.689Z,62.75
2023-01-25T11:19:34.051Z,89.75
2023-01-25T11:22:03.007Z,90.50
2023-01-25T11:24:32.579Z,69.75
2023-01-25T11:27:18.644Z,70.00
2023-01-25T11:29:46.436Z,59.25
2023-01-25T11:32:18.550Z,57.25
2023-01-25T11:34:45.233Z,62.25
2023-01-25T11:37:38.130Z,63.75
2023-01-25T11:40:17.728Z,60.50
2023-01-25T11:42:59.988Z,91.50
2023-01-25T11:46:02.380Z,44.00
2023-01-25T11:49:12.094Z,35.75
2023-01-25T11:51:43.334Z,40.75
2023-01-25T11:54:32.474Z,27.75
2023-01-25T11:57:10.091Z,18.25
2023-01-25T11:59:55.050Z,8.50
2023-01-25T12:02:50.271Z,10.75
2023-01-25T12:05:33.248Z,18.75
2023-01-25T12:08:12.319Z,16.25
2023-01-25T12:10:47.771Z,9.50
2023-01-25T12:13:22.867Z,17.75
2023-01-25T12:16:12.431Z,7.25
2023-01-25T12:18:57.658Z,15.25
2023-01-25T12:21:40.759Z,15.25
2023-01-25T12:24:28.313Z,16.75
2023-01-25T12:27:07.710Z,17.75
2023-01-25T12:29:40.684Z,11.75
2023-01-25T12:32:18.344Z,18.50
2023-01-25T12:34:51.164Z,30.25
2023-01-25T12:37:23.338Z,14.50
2023-01-25T12:39:55.867Z,16.00
2023-01-25T12:42:29.614Z,14.75
2023-01-25T12:45:02.673Z,16.25
2023-01-25T12:47:34.949Z,15.50
2023-01-25T12:50:12.911Z,16.50
2023-01-25T12:52:45.534Z,27.75
2023-01-25T12:55:14.765Z,19.00
2023-01-25T12:57:47.418Z,37.75
2023-01-25T13:00:25.955Z,17.75
2023-01-25T13:03:11.003Z,22.50
2023-01-25T13:05:45.586Z,13.50
2023-01-25T13:08:31.101Z,15.75
2023-01-25T13:11:08.616Z,26.75
2023-01-25T13:13:35.412Z,17.50
2023-01-25T13:16:40.795Z,13.50
2023-01-25T13:19:19.475Z,18.00
2023-01-25T13:21:47.365Z,23.00
2023-01-25T13:24:19.870Z,23.00
2023-01-25T13:26:58.529Z,19.75
2023-01-25T13:29:44.016Z,32.00
2023-01-25T13:32:14.150Z,12.00
2023-01-25T13:34:57.531Z,24.00
2023-01-25T13:37:26.564Z,19.75
2023-01-25T13:39:54.491Z,16.25
2023-01-25T13:42:23.573Z,16.75
2023-01-25T13:44:53.459Z,35.50
2023-01-25T13:47:23.758Z,39.50
2023-01-25T13:49:56.663Z,25.75
2023-01-25T13:52:24.870Z,20.50
2023-01-25T13:54:55.903Z,44.25
2023-01-25T13:57:25.941Z,36.00
2023-01-25T14:00:09.864Z,408.33
2023-01-25T14:02:41.774Z,1958.25
2023-01-25T14:05:17.873Z,522.75
2023-01-25T14:07:47.601Z,427.67
2023-01-25T14:10:17.992Z,1036.60
2023-01-25T14:12:45.104Z,171.67
2023-01-25T14:15:20.267Z,57.75
2023-01-25T14:18:04.652Z,50.00
2023-01-25T14:20:31.829Z,2981.80
2023-01-25T14:22:58.511Z,2319.80
2023-01-25T14:25:25.297Z,3429.60
2023-01-25T14:27:54.648Z,2846.40
2023-01-25T14:30:24.902Z,1185.00
2023-01-25T14:32:54.983Z,1746.00
2023-01-25T14:35:54.181Z,1172.60
2023-01-25T14:38:26.114Z,2686.80
2023-01-25T14:40:56.822Z,3052.00
2023-01-25T14:43:25.188Z,2329.20
2023-01-25T14:45:51.990Z,2317.80
2023-01-25T14:48:40.845Z,2802.75
2023-01-25T14:51:18.332Z,3821.00
2023-01-25T14:53:48.822Z,3659.60
2023-01-25T14:56:29.738Z,3746.50
2023-01-25T14:58:59.803Z,2601.25
2023-01-25T15:01:32.859Z,3359.40
2023-01-25T15:04:01.135Z,3829.50
2023-01-25T15:06:28.019Z,2210.00
2023-01-25T15:08:54.948Z,2792.80
2023-01-25T15:11:28.699Z,3047.60
2023-01-25T15:14:01.729Z,3620.80
2023-01-25T15:16:33.390Z,3769.25
2023-01-25T15:19:01.543Z,3475.25
2023-01-25T15:21:30.535Z,3629.60
2023-01-25T15:23:59.292Z,3705.20
2023-01-25T15:26:27.804Z,3635.60
2023-01-25T15:28:56.937Z,2662.80
2023-01-25T15:31:26.443Z,2878.80
2023-01-25T15:33:54.116Z,1775.25
2023-01-25T15:36:22.488Z,3496.25
2023-01-25T15:38:49.214Z,3583.25
2023-01-25T15:41:15.924Z,2874.80
2023-01-25T15:43:42.837Z,1140.75
2023-01-25T15:46:16.666Z,1485.25
2023-01-25T15:48:45.349Z,2864.80
2023-01-25T15:51:12.577Z,2510.00
2023-01-25T15:53:40.785Z,2750.40
2023-01-25T15:56:13.975Z,3042.20
2023-01-25T15:58:42.732Z,2511.40
2023-01-25T16:01:10.124Z,1609.60
2023-01-25T16:03:36.912Z,2738.75
2023-01-25T16:06:07.140Z,2667.20
2023-01-25T16:08:36.879Z,3217.80
2023-01-25T16:11:04.913Z,2201.60
2023-01-25T16:13:31.603Z,2156.25
2023-01-25T16:16:00.240Z,32.33
2023-01-25T16:18:26.916Z,41.67
2023-01-25T16:20:53.605Z,811.67
2023-01-25T16:23:20.271Z,420.25
2023-01-25T16:25:48.609Z,1869.25
2023-01-25T16:28:17.434Z,3432.60
2023-01-25T16:30:44.245Z,414.00
2023-01-25T16:33:11.061Z,10.50
2023-01-25T16:35:38.851Z,5.00
2023-01-25T16:38:05.599Z,127.00
2023-01-25T16:40:34.915Z,1389.75
2023-01-25T16:43:01.569Z,308.60
2023-01-25T16:45:29.814Z,34.75
2023-01-25T16:47:56.464Z,174.00
2023-01-25T16:50:23.729Z,434.33
2023-01-25T16:52:50.389Z,557.25
2023-01-25T16:55:18.612Z,2620.25
2023-01-25T16:57:50.331Z,457.80
2023-01-25T17:00:17.762Z,1426.50
2023-01-25T17:02:58.272Z,189.50
2023-01-25T17:05:26.153Z,442.00
2023-01-25T17:07:52.908Z,546.40
2023-01-25T17:10:19.890Z,1714.40
2023-01-25T17:12:46.645Z,349.25
2023-01-25T17:15:13.315Z,1237.80
2023-01-25T17:17:40.048Z,1086.80
2023-01-25T17:20:10.416Z,578.67
2023-01-25T17:22:37.372Z,331.67
2023-01-25T17:25:04.361Z,58.75
2023-01-25T17:27:31.075Z,69.60
2023-01-25T17:29:57.766Z,442.40
2023-01-25T17:32:24.689Z,22.50
2023-01-25T17:34:51.466Z,174.67
2023-01-25T17:37:19.620Z,50.75
2023-01-25T17:39:46.278Z,15.75
2023-01-25T17:42:12.940Z,14.75
2023-01-25T17:44:39.599Z,14.00
2023-01-25T17:47:06.324Z,120.25
2023-01-25T17:49:32.987Z,15.00
2023-01-25T17:51:59.638Z,46.00
2023-01-25T17:54:27.719Z,427.33
2023-01-25T17:56:54.400Z,12.25
2023-01-25T17:59:21.186Z,313.75
2023-01-25T18:01:48.021Z,226.25
2023-01-25T18:04:14.714Z,414.50
2023-01-25T18:06:41.426Z,38.25
2023-01-25T18:09:08.423Z,8.50
2023-01-25T18:11:38.318Z,32.50
2023-01-25T18:14:08.454Z,43.75
2023-01-25T18:16:37.462Z,10.25
2023-01-25T18:19:04.744Z,6.75
2023-01-25T18:21:32.794Z,12.75
2023-01-25T18:24:01.905Z,530.25
2023-01-25T18:26:33.173Z,45.67
2023-01-25T18:29:22.001Z,38.00
2023-01-25T18:31:48.700Z,13.25
2023-01-25T18:34:15.466Z,8.00
2023-01-25T18:36:42.177Z,10.75
2023-01-25T18:39:09.048Z,7.25
2023-01-25T18:41:35.698Z,23.00
2023-01-25T18:44:03.922Z,12.50
2023-01-25T18:46:30.741Z,9.75
2023-01-25T18:48:57.436Z,7.00
2023-01-25T18:51:24.168Z,31.25
2023-01-25T18:53:50.852Z,8.00
2023-01-25T18:56:19.977Z,47.00
2023-01-25T18:58:47.271Z,37.25
2023-01-25T19:01:17.811Z,7.00
2023-01-25T19:03:46.288Z,844.33
2023-01-25T19:06:13.439Z,13.50
2023-01-25T19:08:40.355Z,8.00
2023-01-25T19:11:09.375Z,19.75
2023-01-25T19:13:38.204Z,6.50
2023-01-25T19:16:07.674Z,16.25
2023-01-25T19:18:37.576Z,19.00
2023-01-25T19:21:08.051Z,16.50
2023-01-25T19:23:36.603Z,6.25
2023-01-25T19:26:03.913Z,11.50
2023-01-25T19:28:30.613Z,16.25
2023-01-25T19:30:57.523Z,16.50
2023-01-25T19:33:24.231Z,6.00
2023-01-25T19:36:00.641Z,431.00
2023-01-25T19:38:27.550Z,26.33
2023-01-25T19:40:54.310Z,7.00
2023-01-25T19:43:21.044Z,9.75
2023-01-25T19:45:47.698Z,7.50
2023-01-25T19:48:14.380Z,8.00
2023-01-25T19:50:41.101Z,34.50
2023-01-25T19:53:09.134Z,33.25
2023-01-25T19:55:35.768Z,21.25
2023-01-25T19:58:02.423Z,23.75
2023-01-25T20:00:31.792Z,15.50
2023-01-25T20:03:10.687Z,20.50
2023-01-25T20:05:42.499Z,19.25
2023-01-25T20:08:10.500Z,8.25
2023-01-25T20:10:37.186Z,11.25
2023-01-25T20:13:03.856Z,16.25
2023-01-25T20:15:33.567Z,28.50
2023-01-25T20:18:00.224Z,38.25
2023-01-25T20:20:26.862Z,23.50
2023-01-25T20:22:53.493Z,19.50
2023-01-25T20:25:21.516Z,26.75
2023-01-25T20:27:48.149Z,22.50
2023-01-25T20:30:15.024Z,26.50
2023-01-25T20:32:41.839Z,41.50
2023-01-25T20:35:09.671Z,45.50
2023-01-25T20:37:36.478Z,40.25
2023-01-25T20:40:03.256Z,42.00
2023-01-25T20:42:31.327Z,31.75
2023-01-25T20:44:57.964Z,50.25
2023-01-25T20:47:24.700Z,59.00
2023-01-25T20:49:51.497Z,39.50
2023-01-25T20:52:18.128Z,28.25
2023-01-25T20:54:44.769Z,20.50
2023-01-25T20:57:11.608Z,19.00
2023-01-25T20:59:39.641Z,33.75
2023-01-25T21:02:06.877Z,46.00
2023-01-25T21:04:33.749Z,42.25
2023-01-25T21:07:00.449Z,38.00
2023-01-25T21:09:27.067Z,36.50
2023-01-25T21:11:53.757Z,26.50
2023-01-25T21:14:20.415Z,26.75
2023-01-25T21:16:48.538Z,27.50
2023-01-25T21:19:15.181Z,36.75
2023-01-25T21:21:41.848Z,51.33
2023-01-25T21:24:09.222Z,45.00
2023-01-25T21:26:36.579Z,35.25
2023-01-25T21:29:05.339Z,35.25
2023-01-25T21:31:33.557Z,40.25
2023-01-25T21:34:02.369Z,46.67
2023-01-25T21:36:29.464Z,41.25
2023-01-25T21:38:56.467Z,53.67
2023-01-25T21:41:25.059Z,48.67
2023-01-25T21:43:53.405Z,46.33
2023-01-25T21:46:20.552Z,48.25
2023-01-25T21:48:47.165Z,48.75
2023-01-25T21:51:15.151Z,46.33
2023-01-25T21:53:41.852Z,60.00
2023-01-25T21:56:08.538Z,59.67
2023-01-25T21:58:35.168Z,57.67
2023-01-25T22:01:03.728Z,54.00
2023-01-25T22:03:30.393Z,57.33
2023-01-25T22:05:57.031Z,62.00
2023-01-25T22:08:25.031Z,69.00
2023-01-25T22:10:51.678Z,55.33
2023-01-25T22:13:18.357Z,56.67
2023-01-25T22:15:45.108Z,52.33
2023-01-25T22:18:11.784Z,54.00
2023-01-25T22:20:38.434Z,50.00
2023-01-25T22:23:05.065Z,45.67
2023-01-25T22:25:33.226Z,47.33
2023-01-25T22:28:00.185Z,38.75
2023-01-25T22:30:26.985Z,42.50
2023-01-25T22:32:53.656Z,41.25
2023-01-25T22:35:20.541Z,47.00
2023-01-25T22:37:47.171Z,48.33
2023-01-25T22:40:14.240Z,45.00
2023-01-25T22:42:42.307Z,49.33
2023-01-25T22:45:09.709Z,49.33
2023-01-25T22:47:36.417Z,46.67
2023-01-25T22:50:04.188Z,44.33
2023-01-25T22:52:32.761Z,56.67
2023-01-25T22:54:59.531Z,61.00
2023-01-25T22:57:26.228Z,61.67
2023-01-25T22:59:54.337Z,71.67
2023-01-25T23:02:21.342Z,78.00
2023-01-25T23:04:48.027Z,70.00
2023-01-25T23:07:14.764Z,76.00
2023-01-25T23:09:41.526Z,64.33
2023-01-25T23:12:08.342Z,66.00
2023-01-25T23:14:35.170Z,54.00
2023-01-25T23:17:03.320Z,62.00
2023-01-25T23:19:30.190Z,65.67
2023-01-25T23:21:56.851Z,63.00
2023-01-25T23:24:23.583Z,62.67
2023-01-25T23:26:50.237Z,65.67
2023-01-25T23:29:16.910Z,64.00
2023-01-25T23:31:43.643Z,62.33
2023-01-25T23:34:11.822Z,61.33
2023-01-25T23:36:38.660Z,52.67
2023-01-25T23:39:05.589Z,58.67
2023-01-25T23:41:32.563Z,50.00
2023-01-25T23:43:59.290Z,59.00
2023-01-25T23:46:26.296Z,58.67
2023-01-25T23:48:53.025Z,53.00
2023-01-25T23:51:21.283Z,56.00
2023-01-25T23:53:48.279Z,52.00
2023-01-25T23:56:17.059Z,50.00
2023-01-25T23:58:44.308Z,52.00
